Virtual United States Army Aviation

...



 INTERACTIVE WEATHER
 METAR AND TAF INFORMATION
METAR FOR PASL
ADDS - METARS form results

(2007 UTC 21 September 2020)
Data provider http://aviationweather.gov/metar/data/
 
METAR text: PASL 211956Z AUTO 00000KT 10SM CLR 08/02 A2956 RMK AO2 SLP001 T00780022
Conditions at: PASL (SLEETMUTE , AK, US) observed 1956 UTC 21 September 2020
Temperature: 7.8°C (46°F)
Dewpoint: 2.2°C (36°F) [RH = 68%]
Pressure (altimeter): 29.56 inches Hg (1001.1 mb)
[Sea-level pressure: 1000.1 mb]
Winds: calm
Visibility: 10 or more miles (16+ km)
Ceiling: at least 12,000 feet AGL
Clouds: sky clear below 12,000 feet AGL
Weather: automated observation with no human augmentation;
there may or may not be significant weather present at this time

 AIRPORT MAP

 RUNWAY INFORMATION
Runway 14 Runway length 3100 ft Runway width 60 ft
Runway elevation 190 ft Runway displaced threshold 0 ft Runway heading 167
Runway 32 Runway length 3100 ft Runway width 60 ft
Runway elevation 190 ft Runway displaced threshold 0 ft Runway heading 347

 AIRPORT FREQUENCIES

 AIRPORT NEAR NAVIGATION AIDS